Time;durP1;ratioP1;P1;durP2;ratioP2;P2;SDS_P1;SDS_P2;PMS_P1;PMS_P2;Temp;Humidity;BMP_temperature;BMP_pressure;BME280_temperature;BME280_humidity;BME280_pressure;Samples;Min_cycle;Max_cycle;Signal;HPM_P1;HPM_P2
2020/12/22 00:00:16;;;;;;;2.77;2.20;;;9.00;99.90;;;;;;5032721;28;20942;-66
2020/12/22 00:02:44;;;;;;;2.90;2.50;;;9.00;99.90;;;;;;5032895;28;20475;-66
2020/12/22 00:05:12;;;;;;;2.50;2.30;;;9.10;99.90;;;;;;5032974;28;20449;-66
2020/12/22 00:07:39;;;;;;;2.37;2.10;;;9.10;99.90;;;;;;5032947;28;20439;-66
2020/12/22 00:10:08;;;;;;;2.03;1.90;;;9.10;99.90;;;;;;5032885;28;20545;-66
2020/12/22 00:12:35;;;;;;;2.13;2.03;;;9.00;99.90;;;;;;5032814;28;20466;-66
2020/12/22 00:15:01;;;;;;;2.17;1.97;;;9.00;99.90;;;;;;5032883;28;20443;-66
2020/12/22 00:17:27;;;;;;;1.97;1.87;;;9.10;99.90;;;;;;5032769;28;20475;-66
2020/12/22 00:19:54;;;;;;;2.77;1.90;;;9.20;99.90;;;;;;5032814;28;20453;-66
2020/12/22 00:22:20;;;;;;;1.70;1.60;;;9.20;99.90;;;;;;5032759;28;20497;-66
2020/12/22 00:24:47;;;;;;;1.67;1.57;;;9.30;99.90;;;;;;5032778;28;20446;-66
2020/12/22 00:27:13;;;;;;;1.90;1.50;;;9.30;99.90;;;;;;5032517;28;20501;-66
2020/12/22 00:29:39;;;;;;;1.50;1.40;;;9.30;99.90;;;;;;5032748;28;20450;-66
2020/12/22 00:32:05;;;;;;;1.93;1.83;;;9.30;99.90;;;;;;5035835;28;20467;-66
2020/12/22 00:34:31;;;;;;;1.83;1.73;;;9.30;99.90;;;;;;5036327;28;20454;-66
2020/12/22 00:36:59;;;;;;;1.80;1.70;;;9.20;99.90;;;;;;5036225;28;20449;-66
2020/12/22 00:39:26;;;;;;;2.20;1.77;;;9.20;99.90;;;;;;5036463;28;20450;-66
2020/12/22 00:41:52;;;;;;;2.10;1.90;;;9.30;99.90;;;;;;5036083;28;21010;-66
2020/12/22 00:44:19;;;;;;;1.80;1.70;;;9.30;99.90;;;;;;5036109;28;20451;-66
2020/12/22 00:46:45;;;;;;;2.00;1.80;;;9.30;99.90;;;;;;5036339;28;20468;-66
2020/12/22 00:49:11;;;;;;;2.60;1.70;;;9.30;99.90;;;;;;5036033;28;20450;-66
2020/12/22 00:51:37;;;;;;;2.20;1.83;;;9.30;99.90;;;;;;5036000;28;20540;-66
2020/12/22 00:54:04;;;;;;;1.63;1.53;;;9.30;99.90;;;;;;5036526;28;20451;-66
2020/12/22 00:56:31;;;;;;;1.60;1.50;;;9.30;99.90;;;;;;5035982;28;20446;-66
2020/12/22 00:58:57;;;;;;;2.97;1.90;;;9.30;99.90;;;;;;5035870;28;20478;-66
2020/12/22 01:01:23;;;;;;;1.80;1.53;;;9.30;99.90;;;;;;5035836;28;20473;-66
2020/12/22 01:03:49;;;;;;;2.20;1.57;;;9.30;99.90;;;;;;5035812;28;20456;-66
2020/12/22 01:06:16;;;;;;;1.83;1.40;;;9.30;99.90;;;;;;5036222;28;20802;-66
2020/12/22 01:08:42;;;;;;;1.40;1.30;;;9.30;99.90;;;;;;5035400;28;20442;-66
2020/12/22 01:11:09;;;;;;;1.50;1.40;;;9.40;99.90;;;;;;5035572;28;20470;-66
2020/12/22 01:13:35;;;;;;;1.10;1.00;;;9.40;99.90;;;;;;5035612;28;20446;-66
2020/12/22 01:16:01;;;;;;;1.00;0.90;;;9.40;99.90;;;;;;5035562;28;20442;-66
2020/12/22 01:18:28;;;;;;;1.27;1.17;;;9.40;99.90;;;;;;5035473;28;20528;-66
2020/12/22 01:20:54;;;;;;;0.80;0.80;;;9.40;99.90;;;;;;5035437;28;20456;-65
2020/12/22 01:23:20;;;;;;;1.17;1.00;;;9.50;99.90;;;;;;5035511;28;20445;-66
2020/12/22 01:25:46;;;;;;;1.03;0.80;;;9.60;99.90;;;;;;5035274;28;20450;-66
2020/12/22 01:28:13;;;;;;;0.60;0.50;;;9.60;99.90;;;;;;5035097;28;20427;-66
2020/12/22 01:30:39;;;;;;;0.90;0.70;;;9.70;99.90;;;;;;5035340;28;20450;-66
2020/12/22 01:33:05;;;;;;;0.70;0.50;;;9.70;99.90;;;;;;5035175;28;20466;-66
2020/12/22 01:35:32;;;;;;;0.60;0.50;;;9.80;99.90;;;;;;5035258;28;20449;-66
2020/12/22 01:37:58;;;;;;;0.50;0.50;;;9.80;99.90;;;;;;5035062;28;20474;-65
2020/12/22 01:40:24;;;;;;;0.50;0.50;;;9.90;99.90;;;;;;5035145;28;20443;-66
2020/12/22 01:42:50;;;;;;;0.40;0.40;;;9.90;99.90;;;;;;5034471;28;21035;-66
2020/12/22 01:45:18;;;;;;;0.70;0.50;;;9.80;99.90;;;;;;5035011;28;20446;-65
2020/12/22 01:47:45;;;;;;;0.40;0.33;;;9.80;99.90;;;;;;5035007;28;20515;-67
2020/12/22 01:50:14;;;;;;;0.40;0.30;;;9.90;99.90;;;;;;5035211;28;20443;-67
2020/12/22 01:52:40;;;;;;;1.60;0.50;;;9.90;99.90;;;;;;5034562;28;20462;-67
2020/12/22 01:55:07;;;;;;;0.40;0.30;;;9.90;99.90;;;;;;5034853;28;20450;-67
2020/12/22 01:57:33;;;;;;;0.40;0.30;;;9.90;99.90;;;;;;5034461;28;21001;-67
2020/12/22 01:59:59;;;;;;;0.40;0.40;;;10.00;99.90;;;;;;5035013;28;20442;-67
2020/12/22 02:02:26;;;;;;;1.80;0.40;;;10.00;99.90;;;;;;5034417;28;20525;-67
2020/12/22 02:04:53;;;;;;;0.40;0.40;;;9.90;99.90;;;;;;5034722;28;20481;-67
2020/12/22 02:07:19;;;;;;;0.40;0.40;;;9.90;99.90;;;;;;5035160;28;20926;-67
2020/12/22 02:09:49;;;;;;;0.50;0.37;;;9.80;99.90;;;;;;5034569;28;20496;-67
2020/12/22 02:12:16;;;;;;;0.60;0.40;;;9.80;99.90;;;;;;5034163;28;20470;-67
2020/12/22 02:14:42;;;;;;;0.40;0.30;;;9.90;99.90;;;;;;5034527;28;20442;-67
2020/12/22 02:17:08;;;;;;;0.50;0.40;;;10.00;99.90;;;;;;5034360;28;20471;-67
2020/12/22 02:19:36;;;;;;;0.40;0.30;;;10.00;99.90;;;;;;5034386;28;20453;-67
2020/12/22 02:22:03;;;;;;;0.70;0.40;;;10.10;99.90;;;;;;5034006;28;20929;-67
2020/12/22 02:24:32;;;;;;;0.53;0.30;;;10.00;99.90;;;;;;5034339;28;20442;-67
2020/12/22 02:26:58;;;;;;;1.60;0.40;;;10.10;99.90;;;;;;5034078;28;20481;-67
2020/12/22 02:29:24;;;;;;;0.40;0.37;;;10.10;99.90;;;;;;5034361;28;20443;-68
2020/12/22 02:31:50;;;;;;;0.60;0.60;;;10.10;99.90;;;;;;5034101;28;20520;-68
2020/12/22 02:34:17;;;;;;;0.40;0.30;;;10.10;99.90;;;;;;5034142;28;20500;-68
2020/12/22 02:36:43;;;;;;;0.97;0.30;;;10.10;99.90;;;;;;5034095;28;20442;-68
2020/12/22 02:39:10;;;;;;;0.60;0.30;;;10.10;99.90;;;;;;5033663;28;20478;-68
2020/12/22 02:41:36;;;;;;;0.50;0.40;;;10.20;99.90;;;;;;5033800;28;20908;-68
2020/12/22 02:44:03;;;;;;;0.40;0.30;;;10.30;99.90;;;;;;5033968;28;20447;-68
2020/12/22 02:46:29;;;;;;;0.40;0.40;;;10.30;99.90;;;;;;5033632;28;20446;-68
2020/12/22 02:48:55;;;;;;;0.30;0.30;;;10.30;99.90;;;;;;5033865;28;20489;-68
2020/12/22 02:51:21;;;;;;;0.50;0.40;;;10.20;99.90;;;;;;5033477;28;20471;-67
2020/12/22 02:53:47;;;;;;;0.50;0.40;;;10.30;99.90;;;;;;5033258;28;20446;-68
2020/12/22 02:56:14;;;;;;;1.83;0.30;;;10.40;99.90;;;;;;5033993;28;20461;-66
2020/12/22 02:58:40;;;;;;;0.60;0.40;;;10.30;99.90;;;;;;5033643;28;20889;-66
2020/12/22 03:01:07;;;;;;;0.40;0.40;;;10.40;99.90;;;;;;5033652;28;20466;-66
2020/12/22 03:03:33;;;;;;;0.40;0.30;;;10.40;99.90;;;;;;5033682;28;20497;-66
2020/12/22 03:05:59;;;;;;;0.40;0.30;;;10.40;99.90;;;;;;5033909;28;20453;-66
2020/12/22 03:08:25;;;;;;;0.50;0.40;;;10.40;99.90;;;;;;5033599;28;20442;-66
2020/12/22 03:10:51;;;;;;;0.30;0.30;;;10.40;99.90;;;;;;5033534;28;20493;-67
2020/12/22 03:13:18;;;;;;;0.50;0.50;;;10.40;99.90;;;;;;5033198;28;20814;-67
2020/12/22 03:15:44;;;;;;;0.60;0.40;;;10.40;99.90;;;;;;5033506;28;20442;-67
2020/12/22 03:18:10;;;;;;;0.40;0.40;;;10.40;99.90;;;;;;5033439;28;20462;-67
2020/12/22 03:20:37;;;;;;;0.67;0.40;;;10.30;99.90;;;;;;5033418;28;20451;-67
2020/12/22 03:23:03;;;;;;;0.40;0.30;;;10.40;99.90;;;;;;5033378;28;20474;-67
2020/12/22 03:25:29;;;;;;;0.40;0.40;;;10.30;99.90;;;;;;5033221;28;20442;-67
2020/12/22 03:27:55;;;;;;;0.40;0.40;;;10.40;99.90;;;;;;5033584;28;20439;-67
2020/12/22 03:30:22;;;;;;;0.40;0.40;;;10.40;99.90;;;;;;5033353;28;20811;-68
2020/12/22 03:32:48;;;;;;;2.40;0.40;;;10.50;99.90;;;;;;5033232;28;20466;-67
2020/12/22 03:35:14;;;;;;;0.80;0.30;;;10.40;99.90;;;;;;5033365;28;20450;-68
2020/12/22 03:37:41;;;;;;;0.47;0.33;;;10.40;99.90;;;;;;5033431;28;20485;-68
2020/12/22 03:40:09;;;;;;;0.33;0.30;;;10.50;99.90;;;;;;5033988;28;20446;-67
2020/12/22 03:42:36;;;;;;;0.40;0.40;;;10.60;99.90;;;;;;5033171;28;20467;-68
2020/12/22 03:45:03;;;;;;;0.40;0.30;;;10.60;99.90;;;;;;5033217;28;20451;-67
2020/12/22 03:47:30;;;;;;;0.67;0.30;;;10.50;99.90;;;;;;5033158;28;20443;-67
2020/12/22 03:49:56;;;;;;;0.40;0.30;;;10.60;99.90;;;;;;5033126;28;20442;-67
2020/12/22 03:52:22;;;;;;;0.40;0.30;;;10.60;99.90;;;;;;5032750;28;20986;-67
2020/12/22 03:54:48;;;;;;;0.40;0.30;;;10.60;99.90;;;;;;5033094;28;20450;-68
2020/12/22 03:57:16;;;;;;;0.40;0.30;;;10.60;99.90;;;;;;5032979;28;20446;-68
2020/12/22 03:59:42;;;;;;;0.40;0.30;;;10.50;99.90;;;;;;5033076;28;20465;-68
2020/12/22 04:02:08;;;;;;;1.03;0.30;;;10.50;99.90;;;;;;5032956;28;20540;-67
2020/12/22 04:04:35;;;;;;;0.40;0.30;;;10.40;99.90;;;;;;5034078;28;20449;-68
2020/12/22 04:07:02;;;;;;;0.40;0.30;;;10.40;99.90;;;;;;5036906;28;20446;-68
2020/12/22 04:09:28;;;;;;;0.40;0.30;;;10.50;99.90;;;;;;5036864;28;20438;-67
2020/12/22 04:11:54;;;;;;;0.40;0.30;;;10.50;99.90;;;;;;5036746;28;20466;-68
2020/12/22 04:14:22;;;;;;;0.40;0.30;;;10.50;99.90;;;;;;5036763;28;20457;-68
2020/12/22 04:16:48;;;;;;;0.30;0.30;;;10.60;99.90;;;;;;5036746;28;20450;-68
2020/12/22 04:19:15;;;;;;;0.40;0.30;;;10.60;99.90;;;;;;5036639;28;20478;-68
2020/12/22 04:21:42;;;;;;;0.30;0.30;;;10.60;99.90;;;;;;5036591;28;20520;-66
2020/12/22 04:24:09;;;;;;;0.30;0.30;;;10.70;99.90;;;;;;5036291;28;20989;-66
2020/12/22 04:26:35;;;;;;;0.70;0.30;;;10.70;99.90;;;;;;5036353;28;20486;-66
2020/12/22 04:29:02;;;;;;;0.40;0.40;;;10.70;99.90;;;;;;5036539;28;20442;-66
2020/12/22 04:31:28;;;;;;;0.57;0.40;;;10.70;99.90;;;;;;5036413;28;20458;-66
2020/12/22 04:33:56;;;;;;;1.03;0.30;;;10.70;99.90;;;;;;5036395;28;20450;-66
2020/12/22 04:36:24;;;;;;;0.43;0.40;;;10.70;99.90;;;;;;5036377;28;20454;-66
2020/12/22 04:38:51;;;;;;;0.40;0.30;;;10.80;99.90;;;;;;5036250;28;20486;-66
2020/12/22 04:41:18;;;;;;;0.40;0.30;;;10.70;99.90;;;;;;5036223;28;20516;-66
2020/12/22 04:43:46;;;;;;;0.30;0.30;;;10.80;99.90;;;;;;5036278;28;20446;-66
2020/12/22 04:46:16;;;;;;;0.50;0.30;;;10.70;99.90;;;;;;5035905;28;20450;-66
2020/12/22 04:48:43;;;;;;;2.47;0.40;;;10.70;99.90;;;;;;5036219;28;20558;-66
2020/12/22 04:51:10;;;;;;;0.87;0.30;;;10.70;99.90;;;;;;5035980;28;20470;-66
2020/12/22 04:53:37;;;;;;;0.40;0.30;;;10.80;99.90;;;;;;5036593;28;20446;-66
2020/12/22 04:56:07;;;;;;;0.30;0.30;;;10.80;99.90;;;;;;5036015;28;20451;-66
2020/12/22 04:58:33;;;;;;;0.30;0.30;;;10.90;99.90;;;;;;5035922;28;20481;-66
2020/12/22 05:01:00;;;;;;;0.40;0.30;;;10.80;99.90;;;;;;5035874;28;20443;-66
2020/12/22 05:03:26;;;;;;;0.40;0.30;;;10.70;99.90;;;;;;5035880;28;20443;-66
2020/12/22 05:05:54;;;;;;;0.30;0.30;;;10.60;99.90;;;;;;5035836;28;20456;-66
2020/12/22 05:08:20;;;;;;;0.33;0.30;;;10.60;99.90;;;;;;5035802;28;20498;-66
2020/12/22 05:10:48;;;;;;;0.40;0.30;;;10.50;99.90;;;;;;5035672;28;20443;-66
2020/12/22 05:13:16;;;;;;;0.30;0.20;;;10.50;99.90;;;;;;5035718;28;20809;-66
2020/12/22 05:15:43;;;;;;;0.30;0.30;;;10.50;99.90;;;;;;5035379;28;20476;-66
2020/12/22 05:18:10;;;;;;;0.30;0.30;;;10.60;99.90;;;;;;5034977;28;20481;-66
2020/12/22 05:20:40;;;;;;;0.40;0.30;;;10.70;99.90;;;;;;5035555;28;20453;-66
2020/12/22 05:23:09;;;;;;;0.30;0.30;;;10.70;99.90;;;;;;5035420;28;20854;-66
2020/12/22 05:25:36;;;;;;;0.40;0.40;;;10.70;99.90;;;;;;5035217;28;20973;-66
2020/12/22 05:28:02;;;;;;;0.40;0.30;;;10.60;99.90;;;;;;5035466;28;20481;-66
2020/12/22 05:30:31;;;;;;;0.40;0.30;;;10.70;99.90;;;;;;5035400;28;20447;-66
2020/12/22 05:32:57;;;;;;;0.70;0.30;;;10.80;99.90;;;;;;5035499;28;20499;-66
2020/12/22 05:35:23;;;;;;;0.40;0.30;;;10.80;99.90;;;;;;5035302;28;20450;-66
2020/12/22 05:37:51;;;;;;;0.33;0.30;;;10.80;99.90;;;;;;5035173;28;20478;-66
2020/12/22 05:40:19;;;;;;;0.50;0.30;;;10.90;99.90;;;;;;5035237;28;20484;-66
2020/12/22 05:42:46;;;;;;;1.57;0.40;;;10.90;99.90;;;;;;5035067;28;20577;-67
2020/12/22 05:45:13;;;;;;;0.30;0.30;;;10.90;99.90;;;;;;5034849;28;20455;-67
2020/12/22 05:47:40;;;;;;;0.30;0.30;;;10.90;99.90;;;;;;5034730;28;20939;-67
2020/12/22 05:50:06;;;;;;;0.30;0.30;;;10.90;99.90;;;;;;5034965;28;20450;-66
2020/12/22 05:52:32;;;;;;;0.60;0.30;;;10.80;99.90;;;;;;5034894;28;20459;-66
2020/12/22 05:54:59;;;;;;;0.40;0.30;;;10.80;99.90;;;;;;5034604;28;20450;-66
2020/12/22 05:57:27;;;;;;;0.40;0.30;;;10.80;99.90;;;;;;5034771;28;20454;-67
2020/12/22 05:59:53;;;;;;;0.40;0.30;;;10.80;99.90;;;;;;5034499;28;20946;-66
2020/12/22 06:02:27;;;;;;;0.40;0.30;;;10.90;99.90;;;;;;5034690;28;20462;-66
2020/12/22 06:04:56;;;;;;;0.47;0.40;;;10.90;99.90;;;;;;5034739;28;20802;-66
2020/12/22 06:07:23;;;;;;;0.40;0.30;;;10.90;99.90;;;;;;5034705;28;20443;-66
2020/12/22 06:09:49;;;;;;;0.40;0.30;;;10.90;99.90;;;;;;5034588;28;20942;-66
2020/12/22 06:12:16;;;;;;;0.40;0.33;;;10.80;99.90;;;;;;5034572;28;21006;-66
2020/12/22 06:14:44;;;;;;;0.40;0.30;;;10.90;99.90;;;;;;5034582;28;20435;-66
2020/12/22 06:17:11;;;;;;;0.30;0.30;;;10.90;99.90;;;;;;5034176;28;20790;-66
2020/12/22 06:19:38;;;;;;;0.30;0.30;;;11.00;99.90;;;;;;5034972;28;20915;-67
2020/12/22 06:22:08;;;;;;;1.77;0.50;;;11.00;99.90;;;;;;5034322;28;20474;-67
2020/12/22 06:24:35;;;;;;;1.47;0.40;;;11.00;99.90;;;;;;5034354;28;20504;-67
2020/12/22 06:27:02;;;;;;;0.40;0.30;;;11.00;99.90;;;;;;5033992;28;21047;-66
2020/12/22 06:29:28;;;;;;;0.40;0.30;;;11.00;99.90;;;;;;5033389;28;20517;-67
2020/12/22 06:31:55;;;;;;;1.03;0.30;;;11.00;99.90;;;;;;5034107;28;20495;-68
2020/12/22 06:34:25;;;;;;;0.40;0.30;;;11.20;99.90;;;;;;5034233;28;20450;-68
2020/12/22 06:36:57;;;;;;;0.40;0.33;;;11.10;99.90;;;;;;5034180;28;20445;-68
2020/12/22 06:39:40;;;;;;;1.20;0.60;;;11.10;99.90;;;;;;5033750;28;20470;-68
2020/12/22 06:42:07;;;;;;;0.50;0.50;;;11.10;99.90;;;;;;5034024;28;20975;-68
2020/12/22 06:44:33;;;;;;;0.40;0.33;;;11.10;99.90;;;;;;5034027;28;20447;-68
2020/12/22 06:47:01;;;;;;;0.30;0.30;;;11.10;99.90;;;;;;5033955;28;20443;-68
2020/12/22 06:49:46;;;;;;;2.40;2.20;;;11.20;99.90;;;;;;5034196;28;20926;-68
2020/12/22 06:52:36;;;;;;;0.40;0.30;;;11.10;99.90;;;;;;5033810;28;20474;-68
2020/12/22 06:55:05;;;;;;;0.53;0.33;;;11.10;99.90;;;;;;5033904;28;20937;-68
2020/12/22 06:57:45;;;;;;;0.40;0.30;;;11.10;99.90;;;;;;5033446;28;20958;-67
2020/12/22 07:00:24;;;;;;;0.60;0.33;;;11.20;99.90;;;;;;5033819;28;20448;-67
2020/12/22 07:02:51;;;;;;;5.87;0.40;;;11.30;99.90;;;;;;5033598;28;21081;-67
2020/12/22 07:05:36;;;;;;;0.40;0.30;;;11.20;99.90;;;;;;5033655;28;20443;-66
2020/12/22 07:08:03;;;;;;;0.50;0.50;;;11.20;99.90;;;;;;5033683;28;20569;-67
2020/12/22 07:10:31;;;;;;;1.10;0.30;;;11.20;99.90;;;;;;5033616;28;20446;-66
2020/12/22 07:12:58;;;;;;;0.40;0.30;;;11.30;99.90;;;;;;5033467;28;20515;-66
2020/12/22 07:15:31;;;;;;;0.40;0.30;;;11.40;99.90;;;;;;5033739;28;20442;-67
2020/12/22 07:18:04;;;;;;;1.27;0.30;;;11.50;99.90;;;;;;5033439;28;20467;-67
2020/12/22 07:20:32;;;;;;;0.30;0.30;;;11.50;99.90;;;;;;5033499;28;20437;-67
2020/12/22 07:22:58;;;;;;;0.40;0.30;;;11.50;99.90;;;;;;5033081;28;20978;-66
2020/12/22 07:25:25;;;;;;;0.40;0.40;;;11.50;99.90;;;;;;5033624;28;20458;-66
2020/12/22 07:27:52;;;;;;;0.30;0.30;;;11.40;99.90;;;;;;5032917;28;20471;-67
2020/12/22 07:30:18;;;;;;;0.50;0.40;;;11.40;99.90;;;;;;5033371;28;20447;-66
2020/12/22 07:32:46;;;;;;;0.40;0.30;;;11.40;99.90;;;;;;5032980;28;21016;-67
2020/12/22 07:35:12;;;;;;;0.40;0.30;;;11.50;99.90;;;;;;5033250;28;20938;-66
2020/12/22 07:37:38;;;;;;;0.40;0.40;;;11.50;99.90;;;;;;5033197;28;20474;-66
2020/12/22 07:40:08;;;;;;;0.50;0.50;;;11.50;99.90;;;;;;5035789;28;20496;-66
2020/12/22 07:42:34;;;;;;;0.40;0.40;;;11.50;99.90;;;;;;5037066;28;21050;-67
2020/12/22 07:45:05;;;;;;;0.37;0.30;;;11.50;99.90;;;;;;5037050;28;20864;-66
2020/12/22 07:47:32;;;;;;;0.40;0.30;;;11.50;99.90;;;;;;5037314;28;20530;-67
2020/12/22 07:50:12;;;;;;;0.30;0.30;;;11.50;99.90;;;;;;5037225;28;20454;-67
2020/12/22 07:52:38;;;;;;;0.30;0.30;;;11.50;99.90;;;;;;5037103;28;20568;-67
2020/12/22 07:55:07;;;;;;;0.30;0.30;;;11.50;99.90;;;;;;5037132;28;20438;-67
2020/12/22 07:57:36;;;;;;;0.30;0.30;;;11.60;99.90;;;;;;5036995;28;20454;-67
2020/12/22 08:00:06;;;;;;;0.60;0.40;;;11.70;99.90;;;;;;5037008;28;20453;-67
2020/12/22 08:02:32;;;;;;;0.30;0.30;;;11.60;99.90;;;;;;5036841;28;20462;-67
2020/12/22 08:05:07;;;;;;;0.50;0.30;;;11.60;99.90;;;;;;5037739;28;20450;-67
2020/12/22 08:07:33;;;;;;;0.97;0.83;;;11.70;99.90;;;;;;5036875;28;20434;-67
2020/12/22 08:10:07;;;;;;;0.40;0.30;;;11.80;99.90;;;;;;5036855;28;20450;-67
2020/12/22 08:12:33;;;;;;;0.40;0.30;;;11.80;99.90;;;;;;5036786;28;20467;-67
2020/12/22 08:15:00;;;;;;;0.40;0.30;;;11.80;99.90;;;;;;5036781;28;20435;-67
2020/12/22 08:17:27;;;;;;;0.40;0.40;;;11.80;99.90;;;;;;5036904;28;20438;-67
2020/12/22 08:19:55;;;;;;;0.40;0.30;;;11.80;99.90;;;;;;5036719;28;20434;-67
2020/12/22 08:22:22;;;;;;;0.30;0.30;;;11.90;99.90;;;;;;5036285;28;20877;-67
2020/12/22 08:24:50;;;;;;;0.50;0.30;;;11.90;99.90;;;;;;5036342;28;20893;-67
2020/12/22 08:27:16;;;;;;;0.80;0.30;;;11.90;99.90;;;;;;5036417;28;20478;-67
2020/12/22 08:29:43;;;;;;;0.30;0.30;;;12.00;99.90;;;;;;5036567;28;20484;-67
2020/12/22 08:32:09;;;;;;;0.37;0.30;;;12.00;99.90;;;;;;5036411;28;20502;-67
2020/12/22 08:34:36;;;;;;;0.50;0.40;;;11.90;99.90;;;;;;5036817;28;20420;-67
2020/12/22 08:37:08;;;;;;;1.27;0.40;;;11.90;99.90;;;;;;5036432;28;20431;-67
2020/12/22 08:39:39;;;;;;;0.40;0.40;;;11.90;99.90;;;;;;5036317;28;20466;-67
2020/12/22 08:42:08;;;;;;;1.37;0.30;;;11.90;99.90;;;;;;5036239;28;20466;-67
2020/12/22 08:44:35;;;;;;;0.40;0.30;;;11.90;99.90;;;;;;5035895;28;20869;-67
2020/12/22 08:47:10;;;;;;;0.40;0.30;;;11.90;99.90;;;;;;5036203;28;20446;-67
2020/12/22 08:49:37;;;;;;;0.40;0.30;;;11.90;99.90;;;;;;5035887;28;20434;-67
2020/12/22 08:52:09;;;;;;;0.47;0.30;;;11.90;99.90;;;;;;5035064;28;20467;-69
2020/12/22 08:54:35;;;;;;;0.40;0.40;;;11.90;99.90;;;;;;5036128;28;20434;-69
2020/12/22 08:57:08;;;;;;;0.40;0.30;;;11.90;99.90;;;;;;5035697;28;20946;-68
2020/12/22 08:59:34;;;;;;;0.40;0.30;;;12.00;99.90;;;;;;5035946;28;20467;-68
2020/12/22 09:02:00;;;;;;;0.40;0.30;;;12.00;99.90;;;;;;5035812;28;20467;-68
2020/12/22 09:04:29;;;;;;;0.40;0.30;;;12.10;99.90;;;;;;5035933;28;20430;-68
2020/12/22 09:06:56;;;;;;;0.40;0.30;;;12.10;99.90;;;;;;5036214;28;20450;-68
2020/12/22 09:09:24;;;;;;;0.50;0.40;;;12.00;99.90;;;;;;5035509;28;20981;-68
2020/12/22 09:11:51;;;;;;;0.40;0.30;;;11.90;99.90;;;;;;5035593;28;20493;-68
2020/12/22 09:14:19;;;;;;;0.40;0.40;;;11.90;99.90;;;;;;5035702;28;20447;-69
2020/12/22 09:16:53;;;;;;;0.60;0.30;;;11.80;99.90;;;;;;5035657;28;20453;-69
2020/12/22 09:19:22;;;;;;;0.40;0.30;;;11.70;99.90;;;;;;5035578;28;20466;-68
2020/12/22 09:21:58;;;;;;;0.40;0.30;;;11.60;99.90;;;;;;5035483;28;20470;-68
2020/12/22 09:24:24;;;;;;;0.40;0.40;;;11.60;99.90;;;;;;5035450;28;20491;-68
2020/12/22 09:27:09;;;;;;;0.40;0.30;;;11.60;99.90;;;;;;5034996;28;20478;-68
2020/12/22 09:29:37;;;;;;;0.40;0.40;;;11.60;99.90;;;;;;5035459;28;20477;-68
2020/12/22 09:32:05;;;;;;;0.40;0.30;;;11.50;99.90;;;;;;5035307;28;20466;-69
2020/12/22 09:34:33;;;;;;;0.47;0.40;;;11.50;99.90;;;;;;5035362;28;20446;-68
2020/12/22 09:37:01;;;;;;;2.57;0.40;;;11.50;99.90;;;;;;5034986;28;20442;-68
2020/12/22 09:39:28;;;;;;;0.40;0.30;;;11.50;99.90;;;;;;5035145;28;20505;-69
2020/12/22 09:41:56;;;;;;;1.70;0.40;;;11.60;99.90;;;;;;5035153;28;20462;-69
2020/12/22 09:44:22;;;;;;;0.30;0.30;;;11.60;99.90;;;;;;5035194;28;20442;-69
2020/12/22 09:46:50;;;;;;;0.40;0.40;;;11.60;99.90;;;;;;5034799;28;20934;-68
2020/12/22 09:49:16;;;;;;;0.40;0.40;;;11.60;99.90;;;;;;5035004;28;20447;-69
2020/12/22 09:51:43;;;;;;;0.40;0.30;;;11.70;99.90;;;;;;5034823;28;20988;-68
2020/12/22 09:54:10;;;;;;;0.40;0.30;;;11.90;99.90;;;;;;5034944;28;20447;-68
2020/12/22 09:56:36;;;;;;;0.70;0.60;;;12.00;99.90;;;;;;5034847;28;20492;-68
2020/12/22 09:59:02;;;;;;;2.93;0.70;;;12.10;99.90;;;;;;5034696;28;20479;-68
2020/12/22 10:01:29;;;;;;;9.23;1.00;;;12.00;99.90;;;;;;5034450;28;21047;-68
2020/12/22 10:03:55;;;;;;;1.53;0.40;;;12.00;99.90;;;;;;5034472;28;20546;-68
2020/12/22 10:06:22;;;;;;;0.40;0.30;;;12.00;99.90;;;;;;5034724;28;20434;-68
2020/12/22 10:08:49;;;;;;;0.40;0.30;;;12.20;99.90;;;;;;5034575;28;20427;-68
2020/12/22 10:11:17;;;;;;;0.40;0.40;;;12.50;99.90;;;;;;5034436;28;20470;-68
2020/12/22 10:13:43;;;;;;;0.37;0.30;;;13.10;99.90;;;;;;5034589;28;20434;-69
2020/12/22 10:16:11;;;;;;;0.40;0.30;;;13.50;99.90;;;;;;5034350;28;20914;-68
2020/12/22 10:18:38;;;;;;;0.47;0.40;;;13.80;99.90;;;;;;5034398;28;20487;-69
2020/12/22 10:21:06;;;;;;;0.40;0.30;;;14.10;99.90;;;;;;5034125;28;20427;-69
2020/12/22 10:23:32;;;;;;;2.40;0.30;;;14.20;99.90;;;;;;5034338;28;20993;-69
2020/12/22 10:26:01;;;;;;;0.40;0.30;;;14.30;99.90;;;;;;5034317;28;20486;-68
2020/12/22 10:28:29;;;;;;;0.73;0.30;;;14.30;99.90;;;;;;5034283;28;20439;-68
2020/12/22 10:30:55;;;;;;;0.30;0.30;;;14.20;99.90;;;;;;5033928;28;20926;-69
2020/12/22 10:33:21;;;;;;;0.40;0.37;;;14.30;99.90;;;;;;5034226;28;20481;-68
2020/12/22 10:35:47;;;;;;;0.40;0.30;;;14.40;99.90;;;;;;5034293;28;20446;-68
2020/12/22 10:38:14;;;;;;;0.33;0.30;;;14.20;99.90;;;;;;5034064;28;20492;-69
2020/12/22 10:40:40;;;;;;;0.37;0.30;;;14.10;99.90;;;;;;5034078;28;20431;-68
2020/12/22 10:43:07;;;;;;;1.37;0.30;;;13.90;99.90;;;;;;5033901;28;20504;-68
2020/12/22 10:45:34;;;;;;;0.43;0.30;;;13.80;99.90;;;;;;5033996;28;20427;-68
2020/12/22 10:48:00;;;;;;;0.43;0.40;;;13.70;99.90;;;;;;5033993;28;20764;-67
2020/12/22 10:50:27;;;;;;;0.40;0.30;;;13.60;99.90;;;;;;5033940;28;20435;-67
2020/12/22 10:52:53;;;;;;;0.40;0.30;;;13.50;99.90;;;;;;5033542;28;20986;-67
2020/12/22 10:55:20;;;;;;;2.60;0.40;;;13.50;99.90;;;;;;5033823;28;20458;-67
2020/12/22 10:57:47;;;;;;;1.10;0.30;;;13.50;99.90;;;;;;5033720;28;20434;-67
2020/12/22 11:00:13;;;;;;;0.40;0.30;;;13.50;99.90;;;;;;5033820;28;20431;-67
2020/12/22 11:02:40;;;;;;;0.40;0.30;;;13.40;99.90;;;;;;5033643;28;20466;-67
2020/12/22 11:05:07;;;;;;;0.40;0.40;;;13.40;99.90;;;;;;5033601;28;20973;-67
2020/12/22 11:07:37;;;;;;;0.63;0.60;;;13.40;99.90;;;;;;5033703;28;20445;-67
2020/12/22 11:10:04;;;;;;;0.40;0.30;;;13.40;99.90;;;;;;5033615;28;20434;-67
2020/12/22 11:12:30;;;;;;;0.50;0.40;;;13.40;99.90;;;;;;5033462;28;20474;-67
2020/12/22 11:14:56;;;;;;;0.37;0.30;;;13.30;99.90;;;;;;5033039;28;20435;-67
2020/12/22 11:17:22;;;;;;;0.40;0.30;;;13.40;99.90;;;;;;5033528;28;20431;-67
2020/12/22 11:19:49;;;;;;;0.40;0.30;;;13.40;99.90;;;;;;5033138;28;20996;-67
2020/12/22 11:22:15;;;;;;;0.70;0.70;;;13.30;99.90;;;;;;5033444;28;20474;-67
2020/12/22 11:24:42;;;;;;;0.30;0.30;;;13.20;99.90;;;;;;5033180;28;20772;-67
2020/12/22 11:27:08;;;;;;;0.40;0.40;;;13.20;99.90;;;;;;5033153;28;20486;-67
2020/12/22 11:29:34;;;;;;;0.30;0.30;;;13.10;99.90;;;;;;5033384;28;20427;-67
2020/12/22 11:32:00;;;;;;;0.47;0.37;;;13.10;99.90;;;;;;5033240;28;20466;-67
2020/12/22 11:34:26;;;;;;;0.40;0.30;;;13.10;99.90;;;;;;5033343;28;20430;-66
2020/12/22 11:36:54;;;;;;;0.40;0.33;;;13.10;99.90;;;;;;5033572;28;20438;-67
2020/12/22 11:54:09;;;;;;;0.40;0.30;;;13.00;99.90;;;;;;5111938;27;20917;-66
2020/12/22 11:56:35;;;;;;;0.40;0.40;;;13.00;99.90;;;;;;5111290;28;20419;-66
2020/12/22 11:59:02;;;;;;;0.40;0.40;;;13.00;99.90;;;;;;5110926;28;20919;-66
2020/12/22 12:01:28;;;;;;;1.23;0.40;;;12.90;99.90;;;;;;5111105;28;20466;-66
2020/12/22 12:03:55;;;;;;;0.40;0.30;;;13.00;99.90;;;;;;5111112;28;20419;-66
2020/12/22 12:06:23;;;;;;;0.40;0.30;;;13.00;99.90;;;;;;5111117;28;20830;-66
2020/12/22 12:08:49;;;;;;;0.50;0.40;;;13.00;99.90;;;;;;5111114;28;20879;-66
2020/12/22 12:11:16;;;;;;;0.30;0.30;;;13.00;99.90;;;;;;5110818;28;20527;-66
2020/12/22 12:13:42;;;;;;;0.80;0.37;;;13.10;99.90;;;;;;5110897;28;20467;-66
2020/12/22 12:16:08;;;;;;;0.40;0.30;;;13.10;99.90;;;;;;5110941;28;20481;-65
2020/12/22 12:18:35;;;;;;;0.50;0.40;;;13.10;99.90;;;;;;5110900;28;20427;-65
2020/12/22 12:21:02;;;;;;;0.37;0.30;;;13.10;99.90;;;;;;5110802;28;20416;-65
2020/12/22 12:23:28;;;;;;;0.43;0.30;;;13.10;99.90;;;;;;5111289;28;20427;-66
2020/12/22 12:25:55;;;;;;;0.40;0.30;;;13.10;99.90;;;;;;5110749;28;20428;-66
2020/12/22 12:28:22;;;;;;;0.40;0.30;;;13.10;99.90;;;;;;5110705;28;20427;-66
2020/12/22 12:30:48;;;;;;;0.40;0.30;;;13.10;99.90;;;;;;5110660;28;20434;-66
2020/12/22 12:33:14;;;;;;;0.40;0.30;;;13.10;99.90;;;;;;5110240;28;20991;-65
2020/12/22 12:35:40;;;;;;;0.40;0.30;;;13.10;99.90;;;;;;5110244;28;20804;-66
2020/12/22 12:38:07;;;;;;;0.40;0.30;;;13.10;99.90;;;;;;5110576;28;20411;-66
2020/12/22 12:40:33;;;;;;;0.80;0.37;;;13.10;99.90;;;;;;5110489;28;20438;-66
2020/12/22 12:42:59;;;;;;;1.07;0.30;;;13.10;99.90;;;;;;5110357;28;20475;-66
2020/12/22 12:45:26;;;;;;;0.30;0.30;;;13.10;99.90;;;;;;5110399;28;20431;-66
2020/12/22 12:47:53;;;;;;;0.40;0.30;;;13.10;99.90;;;;;;5110348;28;20428;-66
2020/12/22 12:50:19;;;;;;;0.40;0.30;;;13.10;99.90;;;;;;5110296;28;20434;-66
2020/12/22 12:52:45;;;;;;;0.40;0.30;;;13.20;99.90;;;;;;5109796;28;20479;-66
2020/12/22 12:55:11;;;;;;;0.40;0.30;;;13.10;99.90;;;;;;5110179;28;20447;-66
2020/12/22 12:57:37;;;;;;;0.37;0.30;;;13.10;99.90;;;;;;5110138;28;20431;-66
2020/12/22 13:00:05;;;;;;;0.40;0.40;;;13.00;99.90;;;;;;5110676;28;20428;-66
2020/12/22 13:02:32;;;;;;;0.40;0.30;;;12.90;99.90;;;;;;5109678;28;21001;-66